Aérodrome :
LOGIN :

S'inscrire | Disclaimer

   EN    FR    IT 

 










Légende :    VFR   VFR Marginal   IFR   IFR Intensif   IFR Très Intensif
Visi : 
Plafond : 
>= 8 km
>= 3000ft
5 à 8 km
1000 à 3000 ft
1500m à 5 km
500 à 1000 ft
800 à 1500m
200 à 500 ft
< 800m
< 200 ft
Symboles :   Orages  Brouillard  Fortes neiges  Fortes précipitations  Vent > 20 kt
SIGMETs :   Divers  Orages  Givrage  Turbulence  Onde Orograph.  Cendres Volcan.







- Altitude de l'aérodrome : 357 ft
- Code IATA : TUF
- Voir les cartes d'approche


LFOT - Tours

DERNIER METAR :
  • 231800Z AUTO 22008KT 9999 -DZ BKN019 BKN027 BKN033 14/13 Q1011 TEMPO BKN012TCU BKN020

METARs EXPIRÉS :
  • 231730Z AUTO 22006KT 9999 BKN021/// BKN028/// BKN034/// ///TCU 14/13 Q1011 TEMPO BKN012TCU BKN020
  • 231700Z AUTO 24009KT 9999 BKN023/// BKN040/// BKN060/// ///TCU 14/12 Q1011 TEMPO BKN012
  • 231630Z AUTO 23007KT 200V260 9999 -RA FEW023/// BKN029/// BKN037/// ///TCU 14/12 Q1010 TEMPO BKN012
  • 231600Z AUTO 25009KT 5000 RA BR BKN026/// OVC046/// ///TCU 15/13 Q1010 TEMPO NSW BKN012
  • 231530Z AUTO 22011KT 190V270 7000 +RA SCT028/// BKN035/// BKN041/// ///TCU 15/12 Q1010 TEMPO NSW BKN012

TAF TAF LFOT
Valide du 23 à 18h jusqu'au 24 à 18h UTC


231700Z 2318/2418 18012G22KT 9999 BKN040
TEMPO 2318/2324 -SHRA BKN012TCU BKN020
BECMG 2404/2406 BKN017
TEMPO 2406/2415 -RA BKN009
BECMG 2413/2415 23007KT BKN035
TEMPO 2415/2418 -RA BKN017
Pas de NOTAMs connus pour ce terrain.



MET'MAP, la Météo Aéronautique d'un coup d'oeil ! - Copyright ORBIFLY Décembre 2007 - Disclaimer

ORBIFLY MET'MAP TEAM :

Programmation & Développement : Alexandra Zaïnal
Conception & Développement : Baudouin d'Aumeries
Co-Programmation & Développement : Marc-Olivier Méhu
Soutien technique & logistique : Manuel Goepfert

Contact : metmap@orbifly.com




SOURCES & CREDITS :

   NOAA